sensor_id;sensor_type;location;lat;lon;timestamp;P1;durP1;ratioP1;P2;durP2;ratioP2
9522;SDS011;63165;43.016;25.784;2023-05-07T00:02:13;43.58;;;12.23;;
9522;SDS011;63165;43.016;25.784;2023-05-07T00:04:41;38.78;;;12.85;;
9522;SDS011;63165;43.016;25.784;2023-05-07T00:07:09;48.90;;;16.58;;
9522;SDS011;63165;43.016;25.784;2023-05-07T00:09:36;42.53;;;14.63;;
9522;SDS011;63165;43.016;25.784;2023-05-07T00:12:04;53.30;;;18.80;;
9522;SDS011;63165;43.016;25.784;2023-05-07T00:14:31;32.28;;;11.23;;
9522;SDS011;63165;43.016;25.784;2023-05-07T00:16:58;29.70;;;10.68;;
9522;SDS011;63165;43.016;25.784;2023-05-07T00:19:27;36.13;;;11.25;;
9522;SDS011;63165;43.016;25.784;2023-05-07T00:21:54;33.17;;;11.50;;
9522;SDS011;63165;43.016;25.784;2023-05-07T00:24:22;33.17;;;10.02;;
9522;SDS011;63165;43.016;25.784;2023-05-07T00:26:49;24.52;;;7.47;;
9522;SDS011;63165;43.016;25.784;2023-05-07T00:29:17;20.45;;;7.63;;
9522;SDS011;63165;43.016;25.784;2023-05-07T00:31:45;20.45;;;7.53;;
9522;SDS011;63165;43.016;25.784;2023-05-07T00:34:12;16.58;;;7.30;;
9522;SDS011;63165;43.016;25.784;2023-05-07T00:36:41;14.85;;;6.65;;
9522;SDS011;63165;43.016;25.784;2023-05-07T00:39:08;20.85;;;7.20;;
9522;SDS011;63165;43.016;25.784;2023-05-07T00:41:36;14.02;;;6.25;;
9522;SDS011;63165;43.016;25.784;2023-05-07T00:44:03;14.68;;;6.30;;
9522;SDS011;63165;43.016;25.784;2023-05-07T00:46:31;20.65;;;6.97;;
9522;SDS011;63165;43.016;25.784;2023-05-07T00:49:00;17.73;;;6.75;;
9522;SDS011;63165;43.016;25.784;2023-05-07T00:51:28;15.18;;;6.18;;
9522;SDS011;63165;43.016;25.784;2023-05-07T00:53:58;20.45;;;6.72;;
9522;SDS011;63165;43.016;25.784;2023-05-07T00:56:26;24.90;;;7.97;;
9522;SDS011;63165;43.016;25.784;2023-05-07T00:58:53;27.52;;;10.30;;
9522;SDS011;63165;43.016;25.784;2023-05-07T01:01:21;22.95;;;9.50;;
9522;SDS011;63165;43.016;25.784;2023-05-07T01:03:49;26.77;;;9.52;;
9522;SDS011;63165;43.016;25.784;2023-05-07T01:06:16;22.20;;;8.25;;
9522;SDS011;63165;43.016;25.784;2023-05-07T01:08:44;23.40;;;9.00;;
9522;SDS011;63165;43.016;25.784;2023-05-07T01:11:14;25.40;;;8.35;;
9522;SDS011;63165;43.016;25.784;2023-05-07T01:13:41;18.20;;;7.68;;
9522;SDS011;63165;43.016;25.784;2023-05-07T01:16:09;31.80;;;11.60;;
9522;SDS011;63165;43.016;25.784;2023-05-07T01:18:37;41.17;;;16.23;;
9522;SDS011;63165;43.016;25.784;2023-05-07T01:21:04;56.00;;;21.63;;
9522;SDS011;63165;43.016;25.784;2023-05-07T01:23:33;40.03;;;14.27;;
9522;SDS011;63165;43.016;25.784;2023-05-07T01:26:02;16.60;;;6.93;;
9522;SDS011;63165;43.016;25.784;2023-05-07T01:28:29;21.08;;;10.02;;
9522;SDS011;63165;43.016;25.784;2023-05-07T01:30:58;34.42;;;11.50;;
9522;SDS011;63165;43.016;25.784;2023-05-07T01:33:29;15.52;;;6.97;;
9522;SDS011;63165;43.016;25.784;2023-05-07T01:36:00;13.85;;;7.03;;
9522;SDS011;63165;43.016;25.784;2023-05-07T01:38:29;17.30;;;7.38;;
9522;SDS011;63165;43.016;25.784;2023-05-07T01:40:59;17.05;;;6.47;;
9522;SDS011;63165;43.016;25.784;2023-05-07T01:43:26;13.75;;;6.15;;
9522;SDS011;63165;43.016;25.784;2023-05-07T01:45:55;18.92;;;6.78;;
9522;SDS011;63165;43.016;25.784;2023-05-07T01:48:24;18.52;;;7.50;;
9522;SDS011;63165;43.016;25.784;2023-05-07T01:50:52;21.58;;;6.88;;
9522;SDS011;63165;43.016;25.784;2023-05-07T01:53:20;16.98;;;7.30;;
9522;SDS011;63165;43.016;25.784;2023-05-07T01:55:47;22.33;;;9.32;;
9522;SDS011;63165;43.016;25.784;2023-05-07T01:58:16;32.28;;;10.32;;
9522;SDS011;63165;43.016;25.784;2023-05-07T02:00:43;34.08;;;11.55;;
9522;SDS011;63165;43.016;25.784;2023-05-07T02:03:11;37.55;;;12.07;;
9522;SDS011;63165;43.016;25.784;2023-05-07T02:05:38;22.35;;;8.73;;
9522;SDS011;63165;43.016;25.784;2023-05-07T02:08:05;26.40;;;9.90;;
9522;SDS011;63165;43.016;25.784;2023-05-07T02:10:32;18.63;;;7.30;;
9522;SDS011;63165;43.016;25.784;2023-05-07T02:13:01;14.73;;;6.60;;
9522;SDS011;63165;43.016;25.784;2023-05-07T02:15:29;14.98;;;6.80;;
9522;SDS011;63165;43.016;25.784;2023-05-07T02:18:00;15.20;;;6.05;;
9522;SDS011;63165;43.016;25.784;2023-05-07T02:20:29;15.38;;;5.65;;
9522;SDS011;63165;43.016;25.784;2023-05-07T02:22:56;16.85;;;5.88;;
9522;SDS011;63165;43.016;25.784;2023-05-07T02:25:23;14.35;;;5.80;;
9522;SDS011;63165;43.016;25.784;2023-05-07T02:27:50;16.33;;;5.90;;
9522;SDS011;63165;43.016;25.784;2023-05-07T02:30:17;14.90;;;6.15;;
9522;SDS011;63165;43.016;25.784;2023-05-07T02:32:48;18.23;;;6.20;;
9522;SDS011;63165;43.016;25.784;2023-05-07T02:35:15;30.00;;;6.20;;
9522;SDS011;63165;43.016;25.784;2023-05-07T02:37:42;13.27;;;6.45;;
9522;SDS011;63165;43.016;25.784;2023-05-07T02:40:10;21.60;;;9.02;;
9522;SDS011;63165;43.016;25.784;2023-05-07T02:42:38;16.60;;;7.05;;
9522;SDS011;63165;43.016;25.784;2023-05-07T02:45:06;22.13;;;8.35;;
9522;SDS011;63165;43.016;25.784;2023-05-07T02:47:34;25.23;;;9.07;;
9522;SDS011;63165;43.016;25.784;2023-05-07T02:50:03;21.55;;;9.35;;
9522;SDS011;63165;43.016;25.784;2023-05-07T02:52:31;25.23;;;9.73;;
9522;SDS011;63165;43.016;25.784;2023-05-07T02:54:58;20.08;;;8.02;;
9522;SDS011;63165;43.016;25.784;2023-05-07T02:57:26;16.63;;;7.72;;
9522;SDS011;63165;43.016;25.784;2023-05-07T02:59:53;13.65;;;5.85;;
9522;SDS011;63165;43.016;25.784;2023-05-07T03:02:20;14.75;;;5.78;;
9522;SDS011;63165;43.016;25.784;2023-05-07T03:04:47;23.70;;;9.18;;
9522;SDS011;63165;43.016;25.784;2023-05-07T03:07:16;25.80;;;8.98;;
9522;SDS011;63165;43.016;25.784;2023-05-07T03:09:43;17.33;;;7.13;;
9522;SDS011;63165;43.016;25.784;2023-05-07T03:12:11;17.70;;;5.85;;
9522;SDS011;63165;43.016;25.784;2023-05-07T03:14:38;15.73;;;5.82;;
9522;SDS011;63165;43.016;25.784;2023-05-07T03:17:05;13.85;;;6.00;;
9522;SDS011;63165;43.016;25.784;2023-05-07T03:19:32;11.25;;;5.28;;
9522;SDS011;63165;43.016;25.784;2023-05-07T03:22:00;11.55;;;5.00;;
9522;SDS011;63165;43.016;25.784;2023-05-07T03:24:29;12.82;;;5.22;;
9522;SDS011;63165;43.016;25.784;2023-05-07T03:26:56;11.13;;;5.30;;
9522;SDS011;63165;43.016;25.784;2023-05-07T03:29:24;14.27;;;5.72;;
9522;SDS011;63165;43.016;25.784;2023-05-07T03:31:51;14.07;;;5.63;;
9522;SDS011;63165;43.016;25.784;2023-05-07T03:34:18;10.77;;;5.30;;
9522;SDS011;63165;43.016;25.784;2023-05-07T03:36:47;11.85;;;5.40;;
9522;SDS011;63165;43.016;25.784;2023-05-07T03:39:15;16.67;;;5.70;;
9522;SDS011;63165;43.016;25.784;2023-05-07T03:41:43;9.93;;;5.07;;
9522;SDS011;63165;43.016;25.784;2023-05-07T03:44:11;14.00;;;5.90;;
9522;SDS011;63165;43.016;25.784;2023-05-07T03:46:38;14.65;;;5.90;;
9522;SDS011;63165;43.016;25.784;2023-05-07T03:49:08;13.60;;;6.57;;
9522;SDS011;63165;43.016;25.784;2023-05-07T03:51:36;17.80;;;7.10;;
9522;SDS011;63165;43.016;25.784;2023-05-07T03:54:03;18.02;;;7.20;;
9522;SDS011;63165;43.016;25.784;2023-05-07T03:56:30;17.17;;;6.72;;
9522;SDS011;63165;43.016;25.784;2023-05-07T03:58:59;16.48;;;7.05;;
9522;SDS011;63165;43.016;25.784;2023-05-07T04:01:26;16.20;;;6.90;;
9522;SDS011;63165;43.016;25.784;2023-05-07T04:03:53;15.68;;;6.97;;
9522;SDS011;63165;43.016;25.784;2023-05-07T04:06:21;15.75;;;7.15;;
9522;SDS011;63165;43.016;25.784;2023-05-07T04:08:48;13.52;;;6.53;;
9522;SDS011;63165;43.016;25.784;2023-05-07T04:11:15;14.85;;;6.93;;
9522;SDS011;63165;43.016;25.784;2023-05-07T04:13:42;16.17;;;7.50;;
9522;SDS011;63165;43.016;25.784;2023-05-07T04:16:11;37.03;;;14.40;;
9522;SDS011;63165;43.016;25.784;2023-05-07T04:18:38;77.03;;;26.35;;
9522;SDS011;63165;43.016;25.784;2023-05-07T04:21:06;97.88;;;31.73;;
9522;SDS011;63165;43.016;25.784;2023-05-07T04:23:40;120.75;;;38.60;;
9522;SDS011;63165;43.016;25.784;2023-05-07T04:26:07;60.95;;;21.27;;
9522;SDS011;63165;43.016;25.784;2023-05-07T04:28:35;72.95;;;25.13;;
9522;SDS011;63165;43.016;25.784;2023-05-07T04:31:03;50.40;;;17.23;;
9522;SDS011;63165;43.016;25.784;2023-05-07T04:33:32;35.65;;;14.50;;
9522;SDS011;63165;43.016;25.784;2023-05-07T04:36:01;22.60;;;9.80;;
9522;SDS011;63165;43.016;25.784;2023-05-07T04:38:29;20.95;;;8.60;;
9522;SDS011;63165;43.016;25.784;2023-05-07T04:40:56;35.25;;;9.38;;
9522;SDS011;63165;43.016;25.784;2023-05-07T04:43:24;19.48;;;8.40;;
9522;SDS011;63165;43.016;25.784;2023-05-07T04:45:51;20.50;;;9.13;;
9522;SDS011;63165;43.016;25.784;2023-05-07T04:48:18;17.08;;;6.95;;
9522;SDS011;63165;43.016;25.784;2023-05-07T04:50:48;16.10;;;7.53;;
9522;SDS011;63165;43.016;25.784;2023-05-07T04:53:16;18.70;;;7.32;;
9522;SDS011;63165;43.016;25.784;2023-05-07T04:55:44;15.55;;;7.10;;
9522;SDS011;63165;43.016;25.784;2023-05-07T04:58:11;21.40;;;7.20;;
9522;SDS011;63165;43.016;25.784;2023-05-07T05:00:38;15.98;;;7.18;;
9522;SDS011;63165;43.016;25.784;2023-05-07T05:03:06;14.80;;;6.72;;
9522;SDS011;63165;43.016;25.784;2023-05-07T05:05:34;20.98;;;6.70;;
9522;SDS011;63165;43.016;25.784;2023-05-07T05:08:03;14.85;;;6.43;;
9522;SDS011;63165;43.016;25.784;2023-05-07T05:10:30;15.60;;;6.25;;
9522;SDS011;63165;43.016;25.784;2023-05-07T05:12:58;17.17;;;6.50;;
9522;SDS011;63165;43.016;25.784;2023-05-07T05:15:25;15.68;;;6.53;;
9522;SDS011;63165;43.016;25.784;2023-05-07T05:17:52;16.05;;;5.97;;
9522;SDS011;63165;43.016;25.784;2023-05-07T05:20:19;18.55;;;6.43;;
9522;SDS011;63165;43.016;25.784;2023-05-07T05:22:46;17.30;;;6.28;;
9522;SDS011;63165;43.016;25.784;2023-05-07T05:25:16;24.58;;;6.78;;
9522;SDS011;63165;43.016;25.784;2023-05-07T05:27:43;16.02;;;6.18;;
9522;SDS011;63165;43.016;25.784;2023-05-07T05:30:11;16.38;;;5.60;;
9522;SDS011;63165;43.016;25.784;2023-05-07T05:32:39;15.07;;;6.15;;
9522;SDS011;63165;43.016;25.784;2023-05-07T05:35:06;20.27;;;7.00;;
9522;SDS011;63165;43.016;25.784;2023-05-07T05:37:34;19.50;;;7.78;;
9522;SDS011;63165;43.016;25.784;2023-05-07T05:40:01;25.75;;;9.00;;
9522;SDS011;63165;43.016;25.784;2023-05-07T05:42:31;16.48;;;6.68;;
9522;SDS011;63165;43.016;25.784;2023-05-07T05:44:58;15.23;;;5.97;;
9522;SDS011;63165;43.016;25.784;2023-05-07T05:47:25;16.58;;;6.45;;
9522;SDS011;63165;43.016;25.784;2023-05-07T05:50:02;16.00;;;4.93;;
9522;SDS011;63165;43.016;25.784;2023-05-07T05:52:31;11.93;;;4.63;;
9522;SDS011;63165;43.016;25.784;2023-05-07T05:54:59;11.20;;;4.90;;
9522;SDS011;63165;43.016;25.784;2023-05-07T05:57:26;11.13;;;4.88;;
9522;SDS011;63165;43.016;25.784;2023-05-07T05:59:55;32.78;;;12.25;;
9522;SDS011;63165;43.016;25.784;2023-05-07T06:02:22;19.90;;;7.13;;
9522;SDS011;63165;43.016;25.784;2023-05-07T06:04:49;17.67;;;5.50;;
9522;SDS011;63165;43.016;25.784;2023-05-07T06:07:16;13.10;;;4.80;;
9522;SDS011;63165;43.016;25.784;2023-05-07T06:09:43;12.40;;;3.95;;
9522;SDS011;63165;43.016;25.784;2023-05-07T06:12:11;11.00;;;4.30;;
9522;SDS011;63165;43.016;25.784;2023-05-07T06:14:38;13.18;;;5.15;;
9522;SDS011;63165;43.016;25.784;2023-05-07T06:17:07;14.60;;;4.50;;
9522;SDS011;63165;43.016;25.784;2023-05-07T06:19:35;7.65;;;3.95;;
9522;SDS011;63165;43.016;25.784;2023-05-07T06:22:05;8.82;;;3.70;;
9522;SDS011;63165;43.016;25.784;2023-05-07T06:24:37;20.33;;;6.00;;
9522;SDS011;63165;43.016;25.784;2023-05-07T06:27:04;11.90;;;4.70;;
9522;SDS011;63165;43.016;25.784;2023-05-07T06:29:38;22.70;;;4.28;;
9522;SDS011;63165;43.016;25.784;2023-05-07T06:32:13;9.40;;;3.65;;
9522;SDS011;63165;43.016;25.784;2023-05-07T06:34:40;8.68;;;4.25;;
9522;SDS011;63165;43.016;25.784;2023-05-07T06:37:08;10.38;;;3.90;;
9522;SDS011;63165;43.016;25.784;2023-05-07T06:39:35;9.45;;;3.88;;
9522;SDS011;63165;43.016;25.784;2023-05-07T06:42:02;11.90;;;3.75;;
9522;SDS011;63165;43.016;25.784;2023-05-07T06:44:30;8.30;;;2.90;;
9522;SDS011;63165;43.016;25.784;2023-05-07T06:46:57;17.67;;;4.18;;
9522;SDS011;63165;43.016;25.784;2023-05-07T06:49:25;7.82;;;3.75;;
9522;SDS011;63165;43.016;25.784;2023-05-07T06:51:52;13.23;;;4.13;;
9522;SDS011;63165;43.016;25.784;2023-05-07T06:54:20;11.93;;;3.40;;
9522;SDS011;63165;43.016;25.784;2023-05-07T06:56:47;6.30;;;3.20;;
9522;SDS011;63165;43.016;25.784;2023-05-07T06:59:15;6.18;;;2.90;;
9522;SDS011;63165;43.016;25.784;2023-05-07T07:01:42;10.30;;;3.40;;
9522;SDS011;63165;43.016;25.784;2023-05-07T07:04:09;14.82;;;3.47;;
9522;SDS011;63165;43.016;25.784;2023-05-07T07:06:38;10.18;;;2.72;;
9522;SDS011;63165;43.016;25.784;2023-05-07T07:09:05;7.93;;;3.17;;
9522;SDS011;63165;43.016;25.784;2023-05-07T07:11:32;14.88;;;3.30;;
9522;SDS011;63165;43.016;25.784;2023-05-07T07:13:59;18.17;;;3.60;;
9522;SDS011;63165;43.016;25.784;2023-05-07T07:16:27;6.05;;;2.90;;
9522;SDS011;63165;43.016;25.784;2023-05-07T07:18:54;14.25;;;3.58;;
9522;SDS011;63165;43.016;25.784;2023-05-07T07:21:21;12.85;;;3.35;;
9522;SDS011;63165;43.016;25.784;2023-05-07T07:23:50;6.85;;;2.70;;
9522;SDS011;63165;43.016;25.784;2023-05-07T07:26:17;10.70;;;2.70;;
9522;SDS011;63165;43.016;25.784;2023-05-07T07:28:44;8.73;;;3.00;;
9522;SDS011;63165;43.016;25.784;2023-05-07T07:31:12;12.57;;;3.08;;
9522;SDS011;63165;43.016;25.784;2023-05-07T07:33:39;9.80;;;3.00;;
9522;SDS011;63165;43.016;25.784;2023-05-07T07:36:07;14.90;;;2.50;;
9522;SDS011;63165;43.016;25.784;2023-05-07T07:38:34;11.10;;;2.45;;
9522;SDS011;63165;43.016;25.784;2023-05-07T07:41:03;9.48;;;2.50;;
9522;SDS011;63165;43.016;25.784;2023-05-07T07:43:30;9.10;;;2.40;;
9522;SDS011;63165;43.016;25.784;2023-05-07T07:45:57;9.00;;;2.55;;
9522;SDS011;63165;43.016;25.784;2023-05-07T07:48:24;6.93;;;2.30;;
9522;SDS011;63165;43.016;25.784;2023-05-07T07:50:51;8.68;;;2.47;;
9522;SDS011;63165;43.016;25.784;2023-05-07T07:53:19;9.02;;;2.50;;
9522;SDS011;63165;43.016;25.784;2023-05-07T07:55:46;10.65;;;2.58;;
9522;SDS011;63165;43.016;25.784;2023-05-07T07:58:15;6.55;;;2.10;;
9522;SDS011;63165;43.016;25.784;2023-05-07T08:00:42;8.43;;;2.00;;
9522;SDS011;63165;43.016;25.784;2023-05-07T08:03:10;5.97;;;2.20;;
9522;SDS011;63165;43.016;25.784;2023-05-07T08:05:37;6.55;;;1.80;;
9522;SDS011;63165;43.016;25.784;2023-05-07T08:08:05;12.52;;;2.83;;
9522;SDS011;63165;43.016;25.784;2023-05-07T08:10:32;9.27;;;1.88;;
9522;SDS011;63165;43.016;25.784;2023-05-07T08:13:03;4.18;;;1.77;;
9522;SDS011;63165;43.016;25.784;2023-05-07T08:15:32;6.38;;;2.00;;
9522;SDS011;63165;43.016;25.784;2023-05-07T08:18:00;11.35;;;2.13;;
9522;SDS011;63165;43.016;25.784;2023-05-07T08:20:28;8.80;;;1.90;;
9522;SDS011;63165;43.016;25.784;2023-05-07T08:22:55;9.10;;;2.15;;
9522;SDS011;63165;43.016;25.784;2023-05-07T08:25:22;8.18;;;2.42;;
9522;SDS011;63165;43.016;25.784;2023-05-07T08:27:50;5.43;;;2.00;;
9522;SDS011;63165;43.016;25.784;2023-05-07T08:30:17;7.00;;;1.75;;
9522;SDS011;63165;43.016;25.784;2023-05-07T08:32:46;12.25;;;2.22;;
9522;SDS011;63165;43.016;25.784;2023-05-07T08:35:13;8.02;;;1.98;;
9522;SDS011;63165;43.016;25.784;2023-05-07T08:37:40;6.80;;;2.00;;
9522;SDS011;63165;43.016;25.784;2023-05-07T08:40:07;9.40;;;1.75;;
9522;SDS011;63165;43.016;25.784;2023-05-07T08:42:36;8.57;;;1.80;;
9522;SDS011;63165;43.016;25.784;2023-05-07T08:45:04;5.65;;;2.13;;
9522;SDS011;63165;43.016;25.784;2023-05-07T08:47:39;82.78;;;5.90;;
9522;SDS011;63165;43.016;25.784;2023-05-07T08:50:12;5.28;;;1.67;;
9522;SDS011;63165;43.016;25.784;2023-05-07T08:52:39;6.15;;;1.80;;
9522;SDS011;63165;43.016;25.784;2023-05-07T08:55:07;7.38;;;1.92;;
9522;SDS011;63165;43.016;25.784;2023-05-07T08:57:35;7.28;;;2.05;;
9522;SDS011;63165;43.016;25.784;2023-05-07T09:00:03;4.88;;;2.17;;
9522;SDS011;63165;43.016;25.784;2023-05-07T09:02:32;5.65;;;2.00;;
9522;SDS011;63165;43.016;25.784;2023-05-07T09:04:59;8.48;;;2.05;;
9522;SDS011;63165;43.016;25.784;2023-05-07T09:07:28;10.25;;;2.13;;
9522;SDS011;63165;43.016;25.784;2023-05-07T09:09:57;6.75;;;2.13;;
9522;SDS011;63165;43.016;25.784;2023-05-07T09:12:24;9.07;;;2.00;;
9522;SDS011;63165;43.016;25.784;2023-05-07T09:14:51;6.45;;;2.20;;
9522;SDS011;63165;43.016;25.784;2023-05-07T09:17:19;7.13;;;2.10;;
9522;SDS011;63165;43.016;25.784;2023-05-07T09:19:46;9.02;;;2.13;;
9522;SDS011;63165;43.016;25.784;2023-05-07T09:22:13;6.03;;;1.92;;
9522;SDS011;63165;43.016;25.784;2023-05-07T09:24:42;3.55;;;1.58;;
9522;SDS011;63165;43.016;25.784;2023-05-07T09:27:14;5.22;;;1.73;;
9522;SDS011;63165;43.016;25.784;2023-05-07T09:29:42;6.28;;;1.80;;
9522;SDS011;63165;43.016;25.784;2023-05-07T09:32:10;8.35;;;1.98;;
9522;SDS011;63165;43.016;25.784;2023-05-07T09:34:37;7.20;;;2.10;;
9522;SDS011;63165;43.016;25.784;2023-05-07T09:37:05;5.43;;;2.13;;
9522;SDS011;63165;43.016;25.784;2023-05-07T09:39:38;7.80;;;1.63;;
9522;SDS011;63165;43.016;25.784;2023-05-07T09:42:07;4.50;;;1.83;;
9522;SDS011;63165;43.016;25.784;2023-05-07T09:44:35;11.38;;;2.08;;
9522;SDS011;63165;43.016;25.784;2023-05-07T09:47:04;5.50;;;2.00;;
9522;SDS011;63165;43.016;25.784;2023-05-07T09:49:33;6.28;;;1.90;;
9522;SDS011;63165;43.016;25.784;2023-05-07T09:52:02;4.22;;;1.75;;
9522;SDS011;63165;43.016;25.784;2023-05-07T09:54:31;10.57;;;2.05;;
9522;SDS011;63165;43.016;25.784;2023-05-07T09:57:00;5.03;;;1.92;;
9522;SDS011;63165;43.016;25.784;2023-05-07T09:59:30;5.10;;;2.00;;
9522;SDS011;63165;43.016;25.784;2023-05-07T10:02:00;4.80;;;1.75;;
9522;SDS011;63165;43.016;25.784;2023-05-07T10:04:29;7.25;;;1.92;;
9522;SDS011;63165;43.016;25.784;2023-05-07T10:06:58;7.22;;;1.80;;
9522;SDS011;63165;43.016;25.784;2023-05-07T10:09:26;8.98;;;2.35;;
9522;SDS011;63165;43.016;25.784;2023-05-07T10:11:53;7.40;;;1.90;;
9522;SDS011;63165;43.016;25.784;2023-05-07T10:14:21;10.02;;;2.15;;
9522;SDS011;63165;43.016;25.784;2023-05-07T10:16:50;8.52;;;2.38;;
9522;SDS011;63165;43.016;25.784;2023-05-07T10:19:20;6.53;;;2.22;;
9522;SDS011;63165;43.016;25.784;2023-05-07T10:21:51;7.57;;;1.92;;
9522;SDS011;63165;43.016;25.784;2023-05-07T10:24:25;4.32;;;1.70;;
9522;SDS011;63165;43.016;25.784;2023-05-07T10:26:53;7.30;;;1.83;;
9522;SDS011;63165;43.016;25.784;2023-05-07T10:29:25;4.65;;;1.80;;
9522;SDS011;63165;43.016;25.784;2023-05-07T10:32:09;7.90;;;2.30;;
9522;SDS011;63165;43.016;25.784;2023-05-07T10:34:50;6.50;;;1.88;;
9522;SDS011;63165;43.016;25.784;2023-05-07T10:37:21;4.75;;;1.90;;
9522;SDS011;63165;43.016;25.784;2023-05-07T10:39:49;7.00;;;1.92;;
9522;SDS011;63165;43.016;25.784;2023-05-07T10:42:16;3.67;;;1.73;;
9522;SDS011;63165;43.016;25.784;2023-05-07T10:44:43;6.53;;;1.67;;
9522;SDS011;63165;43.016;25.784;2023-05-07T10:47:12;4.82;;;1.83;;
9522;SDS011;63165;43.016;25.784;2023-05-07T10:55:48;7.18;;;1.77;;
9522;SDS011;63165;43.016;25.784;2023-05-07T10:58:22;8.57;;;1.80;;
9522;SDS011;63165;43.016;25.784;2023-05-07T11:00:56;6.78;;;2.00;;
9522;SDS011;63165;43.016;25.784;2023-05-07T11:03:25;5.32;;;1.95;;
9522;SDS011;63165;43.016;25.784;2023-05-07T11:08:53;7.47;;;2.13;;
9522;SDS011;63165;43.016;25.784;2023-05-07T11:14:13;5.03;;;1.95;;
9522;SDS011;63165;43.016;25.784;2023-05-07T11:16:41;10.15;;;2.95;;
9522;SDS011;63165;43.016;25.784;2023-05-07T11:19:11;15.05;;;4.78;;
9522;SDS011;63165;43.016;25.784;2023-05-07T11:21:40;9.70;;;3.58;;
9522;SDS011;63165;43.016;25.784;2023-05-07T11:24:09;7.35;;;3.15;;
9522;SDS011;63165;43.016;25.784;2023-05-07T11:26:44;19.08;;;4.18;;
9522;SDS011;63165;43.016;25.784;2023-05-07T11:29:12;21.70;;;7.40;;
9522;SDS011;63165;43.016;25.784;2023-05-07T11:31:41;44.63;;;14.73;;
9522;SDS011;63165;43.016;25.784;2023-05-07T11:34:09;8.48;;;2.53;;
9522;SDS011;63165;43.016;25.784;2023-05-07T11:36:41;4.25;;;1.77;;
9522;SDS011;63165;43.016;25.784;2023-05-07T11:39:27;4.85;;;1.70;;
9522;SDS011;63165;43.016;25.784;2023-05-07T11:41:58;7.95;;;2.75;;
9522;SDS011;63165;43.016;25.784;2023-05-07T11:44:25;5.00;;;1.90;;
9522;SDS011;63165;43.016;25.784;2023-05-07T11:47:05;6.05;;;2.10;;
9522;SDS011;63165;43.016;25.784;2023-05-07T11:49:34;5.90;;;1.80;;
9522;SDS011;63165;43.016;25.784;2023-05-07T11:52:01;5.78;;;1.88;;
9522;SDS011;63165;43.016;25.784;2023-05-07T11:54:34;4.43;;;1.73;;
9522;SDS011;63165;43.016;25.784;2023-05-07T11:57:02;10.23;;;3.42;;
9522;SDS011;63165;43.016;25.784;2023-05-07T11:59:29;6.30;;;2.10;;
9522;SDS011;63165;43.016;25.784;2023-05-07T12:01:57;7.72;;;1.90;;
9522;SDS011;63165;43.016;25.784;2023-05-07T12:04:24;6.38;;;2.45;;
9522;SDS011;63165;43.016;25.784;2023-05-07T12:06:55;6.60;;;2.63;;
9522;SDS011;63165;43.016;25.784;2023-05-07T12:09:22;5.00;;;1.75;;
9522;SDS011;63165;43.016;25.784;2023-05-07T12:11:49;4.93;;;1.83;;
9522;SDS011;63165;43.016;25.784;2023-05-07T12:14:18;8.93;;;1.70;;
9522;SDS011;63165;43.016;25.784;2023-05-07T12:16:45;8.45;;;3.45;;
9522;SDS011;63165;43.016;25.784;2023-05-07T12:19:13;4.80;;;2.00;;
9522;SDS011;63165;43.016;25.784;2023-05-07T12:21:40;13.68;;;3.60;;
9522;SDS011;63165;43.016;25.784;2023-05-07T12:24:10;7.22;;;2.20;;
9522;SDS011;63165;43.016;25.784;2023-05-07T12:26:38;7.32;;;1.90;;
9522;SDS011;63165;43.016;25.784;2023-05-07T12:29:06;4.85;;;2.00;;
9522;SDS011;63165;43.016;25.784;2023-05-07T12:31:34;7.95;;;1.77;;
9522;SDS011;63165;43.016;25.784;2023-05-07T12:34:01;3.17;;;1.58;;
9522;SDS011;63165;43.016;25.784;2023-05-07T12:36:36;7.18;;;1.92;;
9522;SDS011;63165;43.016;25.784;2023-05-07T12:39:04;8.93;;;1.92;;
9522;SDS011;63165;43.016;25.784;2023-05-07T12:41:36;8.13;;;2.85;;
9522;SDS011;63165;43.016;25.784;2023-05-07T12:44:18;4.35;;;1.73;;
9522;SDS011;63165;43.016;25.784;2023-05-07T12:46:46;6.70;;;1.85;;
9522;SDS011;63165;43.016;25.784;2023-05-07T12:49:13;4.78;;;2.10;;
9522;SDS011;63165;43.016;25.784;2023-05-07T12:51:40;6.18;;;2.13;;
9522;SDS011;63165;43.016;25.784;2023-05-07T12:54:08;6.00;;;1.95;;
9522;SDS011;63165;43.016;25.784;2023-05-07T12:56:36;8.63;;;2.38;;
9522;SDS011;63165;43.016;25.784;2023-05-07T12:59:04;5.85;;;1.80;;
9522;SDS011;63165;43.016;25.784;2023-05-07T13:01:31;6.18;;;2.10;;
9522;SDS011;63165;43.016;25.784;2023-05-07T13:04:00;3.67;;;1.77;;
9522;SDS011;63165;43.016;25.784;2023-05-07T13:06:30;5.07;;;1.75;;
9522;SDS011;63165;43.016;25.784;2023-05-07T13:08:57;7.05;;;1.75;;
9522;SDS011;63165;43.016;25.784;2023-05-07T13:11:25;5.32;;;2.00;;
9522;SDS011;63165;43.016;25.784;2023-05-07T13:13:54;7.78;;;1.92;;
9522;SDS011;63165;43.016;25.784;2023-05-07T13:16:21;7.53;;;2.05;;
9522;SDS011;63165;43.016;25.784;2023-05-07T13:18:48;14.27;;;3.03;;
9522;SDS011;63165;43.016;25.784;2023-05-07T13:21:16;6.93;;;2.08;;
9522;SDS011;63165;43.016;25.784;2023-05-07T13:23:43;10.20;;;3.25;;
9522;SDS011;63165;43.016;25.784;2023-05-07T13:26:10;5.30;;;1.60;;
9522;SDS011;63165;43.016;25.784;2023-05-07T13:28:37;4.55;;;1.73;;
9522;SDS011;63165;43.016;25.784;2023-05-07T13:31:07;6.03;;;1.85;;
9522;SDS011;63165;43.016;25.784;2023-05-07T13:33:34;5.82;;;1.80;;
9522;SDS011;63165;43.016;25.784;2023-05-07T13:36:01;4.25;;;1.90;;
9522;SDS011;63165;43.016;25.784;2023-05-07T13:38:30;7.10;;;2.17;;
9522;SDS011;63165;43.016;25.784;2023-05-07T13:40:58;5.35;;;2.10;;
9522;SDS011;63165;43.016;25.784;2023-05-07T13:43:25;4.78;;;1.67;;
9522;SDS011;63165;43.016;25.784;2023-05-07T13:45:52;18.02;;;2.40;;
9522;SDS011;63165;43.016;25.784;2023-05-07T13:48:21;12.90;;;2.35;;
9522;SDS011;63165;43.016;25.784;2023-05-07T13:50:48;14.48;;;2.47;;
9522;SDS011;63165;43.016;25.784;2023-05-07T13:53:15;4.28;;;1.75;;
9522;SDS011;63165;43.016;25.784;2023-05-07T13:55:43;6.80;;;1.83;;
9522;SDS011;63165;43.016;25.784;2023-05-07T13:58:11;5.43;;;2.00;;
9522;SDS011;63165;43.016;25.784;2023-05-07T14:00:38;6.70;;;1.58;;
9522;SDS011;63165;43.016;25.784;2023-05-07T14:03:05;4.97;;;1.95;;
9522;SDS011;63165;43.016;25.784;2023-05-07T14:05:34;4.57;;;2.00;;
9522;SDS011;63165;43.016;25.784;2023-05-07T14:08:01;3.53;;;1.77;;
9522;SDS011;63165;43.016;25.784;2023-05-07T14:10:29;5.53;;;2.08;;
9522;SDS011;63165;43.016;25.784;2023-05-07T14:12:59;10.48;;;2.13;;
9522;SDS011;63165;43.016;25.784;2023-05-07T14:15:27;5.35;;;2.15;;
9522;SDS011;63165;43.016;25.784;2023-05-07T14:17:54;6.10;;;2.13;;
9522;SDS011;63165;43.016;25.784;2023-05-07T14:20:22;6.32;;;2.17;;
9522;SDS011;63165;43.016;25.784;2023-05-07T14:22:51;4.80;;;2.05;;
9522;SDS011;63165;43.016;25.784;2023-05-07T14:25:18;4.78;;;2.08;;
9522;SDS011;63165;43.016;25.784;2023-05-07T14:27:45;9.30;;;2.03;;
9522;SDS011;63165;43.016;25.784;2023-05-07T14:30:13;3.53;;;2.08;;
9522;SDS011;63165;43.016;25.784;2023-05-07T14:32:40;9.38;;;2.42;;
9522;SDS011;63165;43.016;25.784;2023-05-07T14:35:08;6.82;;;2.65;;
9522;SDS011;63165;43.016;25.784;2023-05-07T14:37:35;3.08;;;1.70;;
9522;SDS011;63165;43.016;25.784;2023-05-07T14:40:04;9.45;;;2.45;;
9522;SDS011;63165;43.016;25.784;2023-05-07T14:42:33;6.47;;;2.08;;
9522;SDS011;63165;43.016;25.784;2023-05-07T14:45:01;5.22;;;2.00;;
9522;SDS011;63165;43.016;25.784;2023-05-07T14:47:29;9.00;;;3.47;;
9522;SDS011;63165;43.016;25.784;2023-05-07T14:49:57;12.82;;;4.60;;
9522;SDS011;63165;43.016;25.784;2023-05-07T14:52:26;5.13;;;2.00;;
9522;SDS011;63165;43.016;25.784;2023-05-07T14:54:53;8.68;;;3.60;;
9522;SDS011;63165;43.016;25.784;2023-05-07T14:57:22;20.33;;;5.50;;